Terminal Aerodrome Forecast
Issued by NWS

Home | Current Version | Previous Version | Text Only | Print | Product List | Glossary Off
Versions: 1 2 3 4 5 6 7 8 9 10 11 12 13 14 15 16 17 18

000
FTUS43 KBIS 061700
TAFDIK
TAF
KDIK 061735Z 0618/0718 26010KT P6SM OVC090
     FM062000 28018G28KT P6SM OVC090
     FM062300 29013KT P6SM OVC090
     FM070900 30010KT P6SM OVC030=

USA.gov is the U.S. government's official web portal to all federal, state and local government web resources and services.